sensor_id;sensor_type;location;lat;lon;timestamp;pressure;altitude;pressure_sealevel;temperature;humidity
58373;BME280;44177;43.356;27.672;2023-11-22T00:01:49;97566.06;;;8.19;100.00
58373;BME280;44177;43.356;27.672;2023-11-22T00:04:15;97549.09;;;8.22;100.00
58373;BME280;44177;43.356;27.672;2023-11-22T00:06:40;97529.78;;;8.12;100.00
58373;BME280;44177;43.356;27.672;2023-11-22T00:09:06;97559.66;;;8.40;100.00
58373;BME280;44177;43.356;27.672;2023-11-22T00:11:32;97564.16;;;8.48;100.00
58373;BME280;44177;43.356;27.672;2023-11-22T00:13:57;97571.19;;;8.49;100.00
58373;BME280;44177;43.356;27.672;2023-11-22T00:16:23;97569.34;;;8.53;100.00
58373;BME280;44177;43.356;27.672;2023-11-22T00:18:48;97558.09;;;8.39;100.00
58373;BME280;44177;43.356;27.672;2023-11-22T00:21:14;97554.91;;;8.37;100.00
58373;BME280;44177;43.356;27.672;2023-11-22T00:23:40;97548.56;;;8.33;100.00
58373;BME280;44177;43.356;27.672;2023-11-22T00:26:05;97548.47;;;8.29;100.00
58373;BME280;44177;43.356;27.672;2023-11-22T00:28:32;97518.38;;;8.06;100.00
58373;BME280;44177;43.356;27.672;2023-11-22T00:30:57;97553.31;;;8.36;100.00
58373;BME280;44177;43.356;27.672;2023-11-22T00:33:23;97560.34;;;8.37;100.00
58373;BME280;44177;43.356;27.672;2023-11-22T00:35:49;97547.03;;;8.32;100.00
58373;BME280;44177;43.356;27.672;2023-11-22T00:38:15;97529.97;;;8.19;100.00
58373;BME280;44177;43.356;27.672;2023-11-22T00:40:41;97532.16;;;8.13;100.00
58373;BME280;44177;43.356;27.672;2023-11-22T00:43:07;97541.88;;;8.14;100.00
58373;BME280;44177;43.356;27.672;2023-11-22T00:45:33;97536.44;;;8.14;100.00
58373;BME280;44177;43.356;27.672;2023-11-22T00:47:59;97548.34;;;8.10;100.00
58373;BME280;44177;43.356;27.672;2023-11-22T00:50:24;97543.06;;;8.01;100.00
58373;BME280;44177;43.356;27.672;2023-11-22T00:52:50;97541.72;;;7.95;100.00
58373;BME280;44177;43.356;27.672;2023-11-22T00:55:15;97525.22;;;7.87;100.00
58373;BME280;44177;43.356;27.672;2023-11-22T00:57:41;97535.41;;;7.90;100.00
58373;BME280;44177;43.356;27.672;2023-11-22T01:00:07;97541.63;;;7.91;100.00
58373;BME280;44177;43.356;27.672;2023-11-22T01:02:37;97530.47;;;7.80;100.00
58373;BME280;44177;43.356;27.672;2023-11-22T01:05:06;97536.34;;;7.82;100.00
58373;BME280;44177;43.356;27.672;2023-11-22T01:07:38;97536.34;;;7.82;100.00
58373;BME280;44177;43.356;27.672;2023-11-22T01:10:04;97498.28;;;7.54;100.00
58373;BME280;44177;43.356;27.672;2023-11-22T01:12:31;97516.94;;;7.68;100.00
58373;BME280;44177;43.356;27.672;2023-11-22T01:14:57;97526.97;;;7.80;100.00
58373;BME280;44177;43.356;27.672;2023-11-22T01:17:22;97510.59;;;7.64;100.00
58373;BME280;44177;43.356;27.672;2023-11-22T01:19:49;97510.59;;;7.64;100.00
58373;BME280;44177;43.356;27.672;2023-11-22T01:22:16;97526.19;;;7.67;100.00
58373;BME280;44177;43.356;27.672;2023-11-22T01:24:42;97520.56;;;7.59;100.00
58373;BME280;44177;43.356;27.672;2023-11-22T01:27:08;97511.50;;;7.55;100.00
58373;BME280;44177;43.356;27.672;2023-11-22T01:29:33;97525.75;;;7.65;100.00
58373;BME280;44177;43.356;27.672;2023-11-22T01:32:00;97514.00;;;7.61;100.00
58373;BME280;44177;43.356;27.672;2023-11-22T01:34:26;97517.59;;;7.65;100.00
58373;BME280;44177;43.356;27.672;2023-11-22T01:36:51;97516.13;;;7.67;100.00
58373;BME280;44177;43.356;27.672;2023-11-22T01:39:17;97512.38;;;7.72;100.00
58373;BME280;44177;43.356;27.672;2023-11-22T01:41:46;97514.41;;;7.75;100.00
58373;BME280;44177;43.356;27.672;2023-11-22T01:44:11;97498.81;;;7.72;100.00
58373;BME280;44177;43.356;27.672;2023-11-22T01:46:37;97498.13;;;7.75;100.00
58373;BME280;44177;43.356;27.672;2023-11-22T01:49:03;97513.72;;;7.78;100.00
58373;BME280;44177;43.356;27.672;2023-11-22T01:51:29;97487.09;;;7.55;100.00
58373;BME280;44177;43.356;27.672;2023-11-22T01:53:56;97504.94;;;7.69;100.00
58373;BME280;44177;43.356;27.672;2023-11-22T01:56:25;97493.53;;;7.63;100.00
58373;BME280;44177;43.356;27.672;2023-11-22T01:58:57;97494.09;;;7.56;100.00
58373;BME280;44177;43.356;27.672;2023-11-22T02:01:26;97501.56;;;7.59;100.00
58373;BME280;44177;43.356;27.672;2023-11-22T02:03:51;97462.81;;;7.34;100.00
58373;BME280;44177;43.356;27.672;2023-11-22T02:06:19;97487.34;;;7.50;100.00
58373;BME280;44177;43.356;27.672;2023-11-22T02:08:46;97498.19;;;7.50;100.00
58373;BME280;44177;43.356;27.672;2023-11-22T02:11:12;97483.97;;;7.41;100.00
58373;BME280;44177;43.356;27.672;2023-11-22T02:13:38;97488.81;;;7.48;100.00
58373;BME280;44177;43.356;27.672;2023-11-22T02:16:04;97491.19;;;7.49;100.00
58373;BME280;44177;43.356;27.672;2023-11-22T02:18:30;97484.88;;;7.45;100.00
58373;BME280;44177;43.356;27.672;2023-11-22T02:20:56;97487.13;;;7.43;100.00
58373;BME280;44177;43.356;27.672;2023-11-22T02:23:21;97482.84;;;7.42;100.00
58373;BME280;44177;43.356;27.672;2023-11-22T02:25:47;97496.97;;;7.48;100.00
58373;BME280;44177;43.356;27.672;2023-11-22T02:28:13;97486.22;;;7.39;100.00
58373;BME280;44177;43.356;27.672;2023-11-22T02:30:39;97487.81;;;7.40;100.00
58373;BME280;44177;43.356;27.672;2023-11-22T02:33:05;97476.84;;;7.36;100.00
58373;BME280;44177;43.356;27.672;2023-11-22T02:35:31;97477.53;;;7.33;100.00
58373;BME280;44177;43.356;27.672;2023-11-22T02:37:58;97496.28;;;7.38;100.00
58373;BME280;44177;43.356;27.672;2023-11-22T02:40:24;97475.63;;;7.34;100.00
58373;BME280;44177;43.356;27.672;2023-11-22T02:42:53;97482.97;;;7.33;100.00
58373;BME280;44177;43.356;27.672;2023-11-22T02:45:21;97478.22;;;7.30;100.00
58373;BME280;44177;43.356;27.672;2023-11-22T02:47:49;97472.00;;;7.30;100.00
58373;BME280;44177;43.356;27.672;2023-11-22T02:50:16;97476.53;;;7.38;100.00
58373;BME280;44177;43.356;27.672;2023-11-22T02:52:42;97481.00;;;7.46;100.00
58373;BME280;44177;43.356;27.672;2023-11-22T02:55:08;97492.75;;;7.50;100.00
58373;BME280;44177;43.356;27.672;2023-11-22T02:57:40;97488.56;;;7.53;100.00
58373;BME280;44177;43.356;27.672;2023-11-22T03:00:06;97498.41;;;7.57;100.00
58373;BME280;44177;43.356;27.672;2023-11-22T03:02:33;97506.72;;;7.77;100.00
58373;BME280;44177;43.356;27.672;2023-11-22T03:04:59;97512.19;;;7.93;100.00
58373;BME280;44177;43.356;27.672;2023-11-22T03:07:26;97510.69;;;8.08;100.00
58373;BME280;44177;43.356;27.672;2023-11-22T03:09:51;97484.28;;;8.09;100.00
58373;BME280;44177;43.356;27.672;2023-11-22T03:12:18;97497.22;;;8.28;100.00
58373;BME280;44177;43.356;27.672;2023-11-22T03:14:45;97502.13;;;8.38;100.00
58373;BME280;44177;43.356;27.672;2023-11-22T03:17:11;97498.19;;;8.35;100.00
58373;BME280;44177;43.356;27.672;2023-11-22T03:19:38;97501.53;;;8.00;100.00
58373;BME280;44177;43.356;27.672;2023-11-22T03:22:05;97510.47;;;8.01;100.00
58373;BME280;44177;43.356;27.672;2023-11-22T03:24:32;97508.69;;;7.93;100.00
58373;BME280;44177;43.356;27.672;2023-11-22T03:27:00;97520.25;;;7.89;100.00
58373;BME280;44177;43.356;27.672;2023-11-22T03:29:26;97513.59;;;7.74;100.00
58373;BME280;44177;43.356;27.672;2023-11-22T03:31:52;97469.16;;;7.38;100.00
58373;BME280;44177;43.356;27.672;2023-11-22T03:34:19;97528.44;;;7.77;100.00
58373;BME280;44177;43.356;27.672;2023-11-22T03:36:45;97522.09;;;7.73;100.00
58373;BME280;44177;43.356;27.672;2023-11-22T03:39:10;97514.88;;;7.65;100.00
58373;BME280;44177;43.356;27.672;2023-11-22T03:41:36;97526.41;;;7.74;100.00
58373;BME280;44177;43.356;27.672;2023-11-22T03:44:03;97524.81;;;7.73;100.00
58373;BME280;44177;43.356;27.672;2023-11-22T03:46:30;97522.47;;;7.71;100.00
58373;BME280;44177;43.356;27.672;2023-11-22T03:48:55;97527.50;;;7.85;100.00
58373;BME280;44177;43.356;27.672;2023-11-22T03:51:21;97517.78;;;7.84;100.00
58373;BME280;44177;43.356;27.672;2023-11-22T03:53:46;97512.63;;;7.67;100.00
58373;BME280;44177;43.356;27.672;2023-11-22T03:56:12;97528.75;;;7.88;100.00
58373;BME280;44177;43.356;27.672;2023-11-22T03:58:37;97499.97;;;7.58;100.00
58373;BME280;44177;43.356;27.672;2023-11-22T04:01:04;97535.88;;;7.80;100.00
58373;BME280;44177;43.356;27.672;2023-11-22T04:03:31;97543.16;;;7.76;100.00
58373;BME280;44177;43.356;27.672;2023-11-22T04:05:57;97535.56;;;7.69;100.00
58373;BME280;44177;43.356;27.672;2023-11-22T04:08:23;97545.31;;;7.70;100.00
58373;BME280;44177;43.356;27.672;2023-11-22T04:10:49;97542.72;;;7.62;100.00
58373;BME280;44177;43.356;27.672;2023-11-22T04:13:14;97526.59;;;7.40;100.00
58373;BME280;44177;43.356;27.672;2023-11-22T04:15:40;97546.25;;;7.50;100.00
58373;BME280;44177;43.356;27.672;2023-11-22T04:18:05;97530.78;;;7.38;100.00
58373;BME280;44177;43.356;27.672;2023-11-22T04:20:31;97540.28;;;7.44;100.00
58373;BME280;44177;43.356;27.672;2023-11-22T04:22:57;97502.88;;;7.13;100.00
58373;BME280;44177;43.356;27.672;2023-11-22T04:25:22;97545.94;;;7.26;100.00
58373;BME280;44177;43.356;27.672;2023-11-22T04:27:49;97500.66;;;7.02;100.00
58373;BME280;44177;43.356;27.672;2023-11-22T04:30:14;97541.44;;;7.18;100.00
58373;BME280;44177;43.356;27.672;2023-11-22T04:32:42;97548.31;;;7.16;100.00
58373;BME280;44177;43.356;27.672;2023-11-22T04:35:08;97525.38;;;7.01;100.00
58373;BME280;44177;43.356;27.672;2023-11-22T04:37:35;97557.13;;;7.13;100.00
58373;BME280;44177;43.356;27.672;2023-11-22T04:40:02;97545.94;;;6.89;100.00
58373;BME280;44177;43.356;27.672;2023-11-22T04:42:29;97551.38;;;6.89;100.00
58373;BME280;44177;43.356;27.672;2023-11-22T04:44:55;97562.22;;;6.89;100.00
58373;BME280;44177;43.356;27.672;2023-11-22T04:47:20;97560.84;;;6.83;100.00
58373;BME280;44177;43.356;27.672;2023-11-22T04:49:49;97572.03;;;6.82;100.00
58373;BME280;44177;43.356;27.672;2023-11-22T04:52:14;97520.34;;;6.53;100.00
58373;BME280;44177;43.356;27.672;2023-11-22T04:54:40;97571.00;;;6.86;100.00
58373;BME280;44177;43.356;27.672;2023-11-22T04:57:06;97559.94;;;6.79;100.00
58373;BME280;44177;43.356;27.672;2023-11-22T04:59:32;97562.22;;;6.89;100.00
58373;BME280;44177;43.356;27.672;2023-11-22T05:01:57;97550.91;;;6.87;100.00
58373;BME280;44177;43.356;27.672;2023-11-22T05:04:23;97551.81;;;6.79;100.00
58373;BME280;44177;43.356;27.672;2023-11-22T05:06:48;97553.16;;;6.73;100.00
58373;BME280;44177;43.356;27.672;2023-11-22T05:09:14;97562.28;;;6.68;100.00
58373;BME280;44177;43.356;27.672;2023-11-22T05:11:39;97580.50;;;6.80;100.00
58373;BME280;44177;43.356;27.672;2023-11-22T05:14:10;97568.84;;;6.67;100.00
58373;BME280;44177;43.356;27.672;2023-11-22T05:16:35;97591.00;;;6.69;100.00
58373;BME280;44177;43.356;27.672;2023-11-22T05:19:01;97582.84;;;6.69;100.00
58373;BME280;44177;43.356;27.672;2023-11-22T05:21:26;97586.81;;;6.72;100.00
58373;BME280;44177;43.356;27.672;2023-11-22T05:23:52;97579.91;;;6.62;100.00
58373;BME280;44177;43.356;27.672;2023-11-22T05:26:20;97601.25;;;6.76;100.00
58373;BME280;44177;43.356;27.672;2023-11-22T05:28:46;97601.50;;;6.83;100.00
58373;BME280;44177;43.356;27.672;2023-11-22T05:31:13;97599.00;;;6.78;100.00
58373;BME280;44177;43.356;27.672;2023-11-22T05:33:38;97605.78;;;6.84;100.00
58373;BME280;44177;43.356;27.672;2023-11-22T05:36:05;97601.19;;;6.85;100.00
58373;BME280;44177;43.356;27.672;2023-11-22T05:38:31;97605.59;;;6.89;100.00
58373;BME280;44177;43.356;27.672;2023-11-22T05:41:02;97605.03;;;6.96;100.00
58373;BME280;44177;43.356;27.672;2023-11-22T05:43:27;97602.78;;;6.86;100.00
58373;BME280;44177;43.356;27.672;2023-11-22T05:45:53;97618.47;;;6.92;100.00
58373;BME280;44177;43.356;27.672;2023-11-22T05:48:19;97630.56;;;6.95;100.00
58373;BME280;44177;43.356;27.672;2023-11-22T05:50:45;97613.38;;;6.91;100.00
58373;BME280;44177;43.356;27.672;2023-11-22T05:53:12;97623.13;;;6.92;100.00
58373;BME280;44177;43.356;27.672;2023-11-22T05:55:37;97633.38;;;6.99;100.00
58373;BME280;44177;43.356;27.672;2023-11-22T05:58:03;97646.94;;;6.99;100.00
58373;BME280;44177;43.356;27.672;2023-11-22T06:00:29;97643.34;;;6.94;100.00
58373;BME280;44177;43.356;27.672;2023-11-22T06:02:55;97644.69;;;7.01;100.00
58373;BME280;44177;43.356;27.672;2023-11-22T06:05:21;97655.44;;;6.97;100.00
58373;BME280;44177;43.356;27.672;2023-11-22T06:07:47;97675.91;;;7.07;100.00
58373;BME280;44177;43.356;27.672;2023-11-22T06:10:13;97673.44;;;7.14;100.00
58373;BME280;44177;43.356;27.672;2023-11-22T06:12:40;97671.84;;;7.13;100.00
58373;BME280;44177;43.356;27.672;2023-11-22T06:15:06;97706.59;;;7.45;100.00
58373;BME280;44177;43.356;27.672;2023-11-22T06:17:31;97693.38;;;7.43;100.00
58373;BME280;44177;43.356;27.672;2023-11-22T06:19:57;97708.31;;;7.62;100.00
58373;BME280;44177;43.356;27.672;2023-11-22T06:22:23;97699.72;;;7.72;100.00
58373;BME280;44177;43.356;27.672;2023-11-22T06:24:48;97709.31;;;7.82;100.00
58373;BME280;44177;43.356;27.672;2023-11-22T06:27:14;97692.72;;;7.83;100.00
58373;BME280;44177;43.356;27.672;2023-11-22T06:29:42;97692.56;;;7.92;100.00
58373;BME280;44177;43.356;27.672;2023-11-22T06:32:12;97692.69;;;7.96;100.00
58373;BME280;44177;43.356;27.672;2023-11-22T06:34:37;97709.41;;;8.10;100.00
58373;BME280;44177;43.356;27.672;2023-11-22T06:37:03;97700.94;;;8.12;100.00
58373;BME280;44177;43.356;27.672;2023-11-22T06:39:29;97708.19;;;8.20;100.00
58373;BME280;44177;43.356;27.672;2023-11-22T06:41:55;97709.06;;;8.24;100.00
58373;BME280;44177;43.356;27.672;2023-11-22T06:44:20;97669.16;;;8.00;100.00
58373;BME280;44177;43.356;27.672;2023-11-22T06:46:46;97704.63;;;8.32;100.00
58373;BME280;44177;43.356;27.672;2023-11-22T06:49:11;97718.72;;;8.62;100.00
58373;BME280;44177;43.356;27.672;2023-11-22T06:51:37;97703.56;;;9.34;100.00
58373;BME280;44177;43.356;27.672;2023-11-22T06:54:02;97700.16;;;10.99;99.12
58373;BME280;44177;43.356;27.672;2023-11-22T06:56:28;97656.94;;;12.28;89.16
58373;BME280;44177;43.356;27.672;2023-11-22T06:58:54;97702.91;;;13.55;79.70
58373;BME280;44177;43.356;27.672;2023-11-22T07:01:23;97714.09;;;14.44;73.02
58373;BME280;44177;43.356;27.672;2023-11-22T07:03:51;97710.88;;;15.30;66.35
58373;BME280;44177;43.356;27.672;2023-11-22T07:06:17;97684.22;;;15.41;64.57
58373;BME280;44177;43.356;27.672;2023-11-22T07:08:44;97717.97;;;15.67;64.49
58373;BME280;44177;43.356;27.672;2023-11-22T07:11:11;97721.53;;;16.04;62.83
58373;BME280;44177;43.356;27.672;2023-11-22T07:13:36;97719.84;;;16.64;60.75
58373;BME280;44177;43.356;27.672;2023-11-22T07:16:04;97719.63;;;17.22;58.58
58373;BME280;44177;43.356;27.672;2023-11-22T07:18:30;97719.56;;;17.86;56.22
58373;BME280;44177;43.356;27.672;2023-11-22T07:20:57;97726.31;;;17.77;55.07
58373;BME280;44177;43.356;27.672;2023-11-22T07:23:22;97721.28;;;17.01;57.01
58373;BME280;44177;43.356;27.672;2023-11-22T07:25:52;97716.38;;;16.35;59.17
58373;BME280;44177;43.356;27.672;2023-11-22T07:28:18;97717.97;;;15.63;61.43
58373;BME280;44177;43.356;27.672;2023-11-22T07:30:44;97732.81;;;15.05;63.90
58373;BME280;44177;43.356;27.672;2023-11-22T07:33:09;97736.47;;;14.49;66.34
58373;BME280;44177;43.356;27.672;2023-11-22T07:35:36;97738.56;;;14.11;69.18
58373;BME280;44177;43.356;27.672;2023-11-22T07:38:02;97727.28;;;13.68;70.21
58373;BME280;44177;43.356;27.672;2023-11-22T07:40:29;97742.97;;;13.71;71.00
58373;BME280;44177;43.356;27.672;2023-11-22T07:42:54;97738.41;;;13.86;70.85
58373;BME280;44177;43.356;27.672;2023-11-22T07:45:19;97742.69;;;14.39;69.48
58373;BME280;44177;43.356;27.672;2023-11-22T07:47:45;97741.56;;;14.51;68.08
58373;BME280;44177;43.356;27.672;2023-11-22T07:50:12;97745.25;;;14.80;66.84
58373;BME280;44177;43.356;27.672;2023-11-22T07:52:38;97744.59;;;15.20;65.52
58373;BME280;44177;43.356;27.672;2023-11-22T07:55:05;97739.63;;;15.94;62.99
58373;BME280;44177;43.356;27.672;2023-11-22T07:57:34;97745.38;;;16.79;60.38
58373;BME280;44177;43.356;27.672;2023-11-22T08:00:00;97733.72;;;17.35;57.25
58373;BME280;44177;43.356;27.672;2023-11-22T08:02:26;97744.28;;;17.44;55.76
58373;BME280;44177;43.356;27.672;2023-11-22T08:04:52;97747.66;;;16.99;56.54
58373;BME280;44177;43.356;27.672;2023-11-22T08:07:18;97731.34;;;16.26;58.17
58373;BME280;44177;43.356;27.672;2023-11-22T08:09:44;97752.22;;;15.95;60.72
58373;BME280;44177;43.356;27.672;2023-11-22T08:12:09;97757.66;;;15.59;61.19
58373;BME280;44177;43.356;27.672;2023-11-22T08:14:39;97747.78;;;15.36;62.87
58373;BME280;44177;43.356;27.672;2023-11-22T08:17:06;97747.78;;;15.36;63.35
58373;BME280;44177;43.356;27.672;2023-11-22T08:19:31;97732.53;;;15.60;62.58
58373;BME280;44177;43.356;27.672;2023-11-22T08:21:57;97752.13;;;16.64;60.26
58373;BME280;44177;43.356;27.672;2023-11-22T08:24:22;97769.84;;;17.51;56.98
58373;BME280;44177;43.356;27.672;2023-11-22T08:26:48;97759.94;;;18.56;53.60
58373;BME280;44177;43.356;27.672;2023-11-22T08:29:13;97771.78;;;19.25;50.53
58373;BME280;44177;43.356;27.672;2023-11-22T08:31:40;97772.78;;;19.94;49.60
58373;BME280;44177;43.356;27.672;2023-11-22T08:34:06;97775.34;;;20.08;48.87
58373;BME280;44177;43.356;27.672;2023-11-22T08:36:35;97783.28;;;20.06;48.86
58373;BME280;44177;43.356;27.672;2023-11-22T08:39:01;97772.94;;;19.55;49.81
58373;BME280;44177;43.356;27.672;2023-11-22T08:41:27;97776.31;;;19.12;51.22
58373;BME280;44177;43.356;27.672;2023-11-22T08:43:54;97786.34;;;18.15;54.03
58373;BME280;44177;43.356;27.672;2023-11-22T08:46:20;97768.91;;;17.05;57.64
58373;BME280;44177;43.356;27.672;2023-11-22T08:48:47;97768.31;;;16.36;60.76
58373;BME280;44177;43.356;27.672;2023-11-22T08:51:12;97781.66;;;15.94;62.72
58373;BME280;44177;43.356;27.672;2023-11-22T08:53:38;97780.44;;;15.63;64.56
58373;BME280;44177;43.356;27.672;2023-11-22T08:56:04;97786.25;;;15.29;66.89
58373;BME280;44177;43.356;27.672;2023-11-22T08:58:31;97801.91;;;15.10;68.94
58373;BME280;44177;43.356;27.672;2023-11-22T09:00:57;97785.25;;;14.74;70.35
58373;BME280;44177;43.356;27.672;2023-11-22T09:03:25;97797.69;;;14.57;71.98
58373;BME280;44177;43.356;27.672;2023-11-22T09:05:51;97795.44;;;14.14;74.24
58373;BME280;44177;43.356;27.672;2023-11-22T09:08:19;97809.63;;;13.79;77.42
58373;BME280;44177;43.356;27.672;2023-11-22T09:10:46;97787.34;;;13.46;79.70
58373;BME280;44177;43.356;27.672;2023-11-22T09:13:11;97792.84;;;13.12;81.60
58373;BME280;44177;43.356;27.672;2023-11-22T09:15:40;97787.56;;;12.66;84.50
58373;BME280;44177;43.356;27.672;2023-11-22T09:18:07;97780.91;;;12.36;87.39
58373;BME280;44177;43.356;27.672;2023-11-22T09:20:33;97798.94;;;11.91;90.54
58373;BME280;44177;43.356;27.672;2023-11-22T09:22:58;97819.19;;;11.66;93.96
58373;BME280;44177;43.356;27.672;2023-11-22T09:25:25;97797.13;;;11.56;94.34
58373;BME280;44177;43.356;27.672;2023-11-22T09:27:52;97765.38;;;11.24;96.06
58373;BME280;44177;43.356;27.672;2023-11-22T09:30:25;97813.84;;;11.50;96.99
58373;BME280;44177;43.356;27.672;2023-11-22T09:33:12;97811.63;;;11.36;97.59
58373;BME280;44177;43.356;27.672;2023-11-22T09:35:40;97802.84;;;11.27;99.15
58373;BME280;44177;43.356;27.672;2023-11-22T09:38:08;97809.63;;;11.14;100.00
58373;BME280;44177;43.356;27.672;2023-11-22T09:40:46;97804.16;;;10.94;100.00
58373;BME280;44177;43.356;27.672;2023-11-22T09:43:13;97826.56;;;11.03;100.00
58373;BME280;44177;43.356;27.672;2023-11-22T09:45:43;97817.00;;;10.94;100.00
58373;BME280;44177;43.356;27.672;2023-11-22T09:48:15;97831.16;;;10.99;100.00
58373;BME280;44177;43.356;27.672;2023-11-22T09:50:57;97833.31;;;10.90;100.00
58373;BME280;44177;43.356;27.672;2023-11-22T09:56:01;97836.47;;;10.92;100.00
58373;BME280;44177;43.356;27.672;2023-11-22T09:58:31;97825.69;;;10.80;100.00
58373;BME280;44177;43.356;27.672;2023-11-22T10:01:02;97824.81;;;10.76;100.00
58373;BME280;44177;43.356;27.672;2023-11-22T10:03:33;97833.41;;;10.78;100.00
58373;BME280;44177;43.356;27.672;2023-11-22T10:05:59;97834.50;;;10.73;100.00
58373;BME280;44177;43.356;27.672;2023-11-22T10:08:28;97841.59;;;10.78;100.00
58373;BME280;44177;43.356;27.672;2023-11-22T10:10:55;97844.94;;;10.87;100.00
58373;BME280;44177;43.356;27.672;2023-11-22T10:13:22;97852.50;;;10.94;100.00
58373;BME280;44177;43.356;27.672;2023-11-22T10:15:49;97859.88;;;10.93;100.00
58373;BME280;44177;43.356;27.672;2023-11-22T10:18:15;97830.81;;;10.65;100.00
58373;BME280;44177;43.356;27.672;2023-11-22T10:20:43;97873.81;;;10.88;100.00
58373;BME280;44177;43.356;27.672;2023-11-22T10:23:19;97845.06;;;10.74;100.00
58373;BME280;44177;43.356;27.672;2023-11-22T10:25:54;97861.88;;;10.77;100.00
58373;BME280;44177;43.356;27.672;2023-11-22T10:28:20;97844.22;;;10.54;100.00
58373;BME280;44177;43.356;27.672;2023-11-22T10:30:47;97878.59;;;10.75;100.00
58373;BME280;44177;43.356;27.672;2023-11-22T10:33:16;97875.78;;;10.71;100.00
58373;BME280;44177;43.356;27.672;2023-11-22T10:35:47;97883.97;;;10.71;100.00
58373;BME280;44177;43.356;27.672;2023-11-22T10:38:16;97878.16;;;10.73;100.00
58373;BME280;44177;43.356;27.672;2023-11-22T10:40:42;97881.31;;;10.75;100.00
58373;BME280;44177;43.356;27.672;2023-11-22T10:43:16;97845.66;;;10.48;100.00
58373;BME280;44177;43.356;27.672;2023-11-22T10:45:43;97883.50;;;10.69;100.00
58373;BME280;44177;43.356;27.672;2023-11-22T10:48:14;97891.13;;;10.60;100.00
58373;BME280;44177;43.356;27.672;2023-11-22T10:50:47;97849.69;;;10.38;100.00
58373;BME280;44177;43.356;27.672;2023-11-22T10:53:15;97838.09;;;10.41;100.00
58373;BME280;44177;43.356;27.672;2023-11-22T10:55:45;97824.69;;;10.36;100.00
58373;BME280;44177;43.356;27.672;2023-11-22T10:58:14;97869.19;;;10.72;100.00
58373;BME280;44177;43.356;27.672;2023-11-22T11:00:41;97870.16;;;10.64;100.00
58373;BME280;44177;43.356;27.672;2023-11-22T11:03:28;97859.53;;;10.43;100.00
58373;BME280;44177;43.356;27.672;2023-11-22T11:06:02;97887.94;;;10.58;100.00
58373;BME280;44177;43.356;27.672;2023-11-22T11:08:30;97908.53;;;10.55;100.00
58373;BME280;44177;43.356;27.672;2023-11-22T11:10:57;97887.34;;;10.49;100.00
58373;BME280;44177;43.356;27.672;2023-11-22T11:13:24;97897.28;;;10.57;100.00
58373;BME280;44177;43.356;27.672;2023-11-22T11:15:51;97821.91;;;10.01;100.00
58373;BME280;44177;43.356;27.672;2023-11-22T11:18:18;97910.38;;;10.51;100.00
58373;BME280;44177;43.356;27.672;2023-11-22T11:20:52;97871.31;;;10.31;100.00
58373;BME280;44177;43.356;27.672;2023-11-22T11:23:27;97897.81;;;10.47;100.00
58373;BME280;44177;43.356;27.672;2023-11-22T11:25:55;97916.03;;;10.42;100.00
58373;BME280;44177;43.356;27.672;2023-11-22T11:28:21;97918.84;;;10.46;100.00
58373;BME280;44177;43.356;27.672;2023-11-22T11:30:48;97915.66;;;10.44;100.00
58373;BME280;44177;43.356;27.672;2023-11-22T11:33:19;97874.66;;;10.08;100.00
58373;BME280;44177;43.356;27.672;2023-11-22T11:35:49;97924.47;;;10.37;100.00
58373;BME280;44177;43.356;27.672;2023-11-22T11:38:16;97920.47;;;10.19;100.00
58373;BME280;44177;43.356;27.672;2023-11-22T11:40:43;97918.97;;;10.21;100.00
58373;BME280;44177;43.356;27.672;2023-11-22T11:43:11;97917.28;;;10.17;100.00
58373;BME280;44177;43.356;27.672;2023-11-22T11:45:39;97927.59;;;10.23;100.00
58373;BME280;44177;43.356;27.672;2023-11-22T11:48:06;97926.38;;;10.21;100.00
58373;BME280;44177;43.356;27.672;2023-11-22T11:50:32;97935.41;;;10.25;100.00
58373;BME280;44177;43.356;27.672;2023-11-22T11:52:58;97937.28;;;10.21;100.00
58373;BME280;44177;43.356;27.672;2023-11-22T11:55:26;97940.69;;;10.18;100.00
58373;BME280;44177;43.356;27.672;2023-11-22T11:57:55;97934.69;;;10.12;100.00
58373;BME280;44177;43.356;27.672;2023-11-22T12:00:25;97946.66;;;10.07;100.00
58373;BME280;44177;43.356;27.672;2023-11-22T12:02:50;97936.88;;;9.90;100.00
58373;BME280;44177;43.356;27.672;2023-11-22T12:05:19;97948.41;;;10.00;100.00
58373;BME280;44177;43.356;27.672;2023-11-22T12:07:46;97949.63;;;10.02;100.00
58373;BME280;44177;43.356;27.672;2023-11-22T12:10:12;97944.88;;;9.99;100.00
58373;BME280;44177;43.356;27.672;2023-11-22T12:12:38;97944.63;;;10.04;100.00
58373;BME280;44177;43.356;27.672;2023-11-22T12:15:05;97932.59;;;10.05;100.00
58373;BME280;44177;43.356;27.672;2023-11-22T12:17:32;97953.88;;;10.16;100.00
58373;BME280;44177;43.356;27.672;2023-11-22T12:20:14;97909.06;;;9.85;100.00
58373;BME280;44177;43.356;27.672;2023-11-22T12:22:42;97951.59;;;10.02;100.00
58373;BME280;44177;43.356;27.672;2023-11-22T12:25:10;97953.13;;;10.03;100.00
58373;BME280;44177;43.356;27.672;2023-11-22T12:27:39;97869.03;;;9.57;100.00
58373;BME280;44177;43.356;27.672;2023-11-22T12:30:06;97949.19;;;10.00;100.00
58373;BME280;44177;43.356;27.672;2023-11-22T12:32:32;97953.59;;;10.05;100.00
58373;BME280;44177;43.356;27.672;2023-11-22T12:34:58;97963.25;;;10.02;100.00
58373;BME280;44177;43.356;27.672;2023-11-22T12:37:24;97972.03;;;9.95;100.00
58373;BME280;44177;43.356;27.672;2023-11-22T12:39:50;97958.22;;;9.88;100.00
58373;BME280;44177;43.356;27.672;2023-11-22T12:42:18;97968.06;;;9.93;100.00
58373;BME280;44177;43.356;27.672;2023-11-22T12:44:48;97966.56;;;9.95;100.00
58373;BME280;44177;43.356;27.672;2023-11-22T12:47:14;97959.66;;;9.98;100.00
58373;BME280;44177;43.356;27.672;2023-11-22T12:49:45;97972.38;;;9.94;100.00